Terminal Aerodrome Forecast
Issued by NWS

Home | Current Version | Previous Version | Graphics & Text | Print | Product List | Glossary On
Versions: 1 2 3 4 5 6 7 8 9 10 11 12 13 14
000
FTUS43 KICT 241300 AAA
TAFCNU
TAF AMD
KCNU 241300Z 2413/2512 19017KT P6SM VCTS SCT040 OVC060CB
      TEMPO 2413/2415 5SM TSRA BKN040CB
     FM241500 33017KT P6SM VCTS OVC035CB
     FM242200 32017G25KT P6SM SCT035 BKN080=

USA.gov is the U.S. government's official web portal to all federal, state and local government web resources and services.